Time;durP1;ratioP1;P1;durP2;ratioP2;P2;SDS_P1;SDS_P2;PMS_P1;PMS_P2;Temp;Humidity;BMP_temperature;BMP_pressure;BME280_temperature;BME280_humidity;BME280_pressure;Samples;Min_cycle;Max_cycle;Signal;HPM_P1;HPM_P2
2023/01/15 00:03:32;;;;;;;2.30;1.50;;;;;;;4.50;88.94;98043.74;221565;1278;22576;-73
2023/01/15 00:08:35;;;;;;;7.10;1.90;;;;;;;4.64;88.57;98044.85;221387;1277;24292;-74
2023/01/15 00:13:44;;;;;;;2.60;1.50;;;;;;;4.74;88.32;98043.94;221581;1279;22716;-72
2023/01/15 00:18:54;;;;;;;3.60;1.80;;;;;;;4.82;87.97;98045.15;221428;1278;22737;-74
2023/01/15 00:29:18;;;;;;;4.60;1.60;;;;;;;4.94;87.53;98041.46;221578;1279;22655;-73
2023/01/15 00:34:26;;;;;;;5.50;1.80;;;;;;;4.99;87.32;98040.14;221226;1279;24232;-73
2023/01/15 00:39:28;;;;;;;4.70;1.70;;;;;;;5.02;87.36;98020.52;221462;1279;22556;-74
2023/01/15 00:44:32;;;;;;;4.40;1.90;;;;;;;5.04;87.13;98020.67;221368;1279;22761;-73
2023/01/15 00:49:44;;;;;;;4.40;2.10;;;;;;;5.05;86.98;98016.43;221469;1273;23024;-74
2023/01/15 00:54:47;;;;;;;8.60;2.60;;;;;;;5.06;87.04;97999.91;221209;1279;22548;-73
2023/01/15 00:59:50;;;;;;;6.40;2.40;;;;;;;5.07;86.54;97998.06;221424;1275;22534;-73
2023/01/15 01:04:58;;;;;;;7.70;2.60;;;;;;;5.07;87.08;97991.52;221087;1279;23809;-74
2023/01/15 01:10:01;;;;;;;6.50;2.70;;;;;;;5.08;86.87;97988.39;221486;1279;22543;-73
2023/01/15 01:15:05;;;;;;;7.60;2.00;;;;;;;5.07;86.98;97978.04;221470;1279;22533;-73
2023/01/15 01:20:14;;;;;;;6.40;2.20;;;;;;;5.05;86.19;97973.10;221359;1277;23931;-74
2023/01/15 01:25:16;;;;;;;2.70;1.70;;;;;;;5.01;85.53;97970.20;221459;1279;25373;-73
2023/01/15 01:30:19;;;;;;;4.20;2.00;;;;;;;4.98;85.59;97960.60;221574;1278;24140;-73
2023/01/15 01:35:21;;;;;;;5.20;1.90;;;;;;;4.95;85.63;97952.06;221274;1279;23770;-74
2023/01/15 01:40:31;;;;;;;5.00;2.00;;;;;;;4.94;85.30;97935.83;221455;1279;24118;-73
2023/01/15 01:46:03;;;;;;;3.50;1.50;;;;;;;4.96;85.30;97906.24;221568;1279;23778;-73
2023/01/15 01:51:10;;;;;;;3.50;1.90;;;;;;;4.99;85.37;97905.50;221359;1279;25031;-74
2023/01/15 01:56:16;;;;;;;4.00;1.80;;;;;;;5.01;85.00;97895.88;221580;1277;22534;-73
2023/01/15 02:01:24;;;;;;;5.30;1.90;;;;;;;5.03;85.09;97890.45;221297;1274;25405;-73
2023/01/15 02:06:30;;;;;;;4.60;2.10;;;;;;;5.03;84.85;97886.05;221350;1279;22702;-74
2023/01/15 02:11:34;;;;;;;3.40;1.60;;;;;;;5.03;84.81;97879.62;221298;1278;24185;-72
2023/01/15 02:16:47;;;;;;;1.80;1.20;;;;;;;5.04;84.67;97863.80;221383;1277;25301;-74
2023/01/15 02:22:18;;;;;;;6.30;1.90;;;;;;;5.09;84.58;97872.84;221474;1274;25415;-74
2023/01/15 02:27:23;;;;;;;3.10;1.40;;;;;;;5.10;84.84;97860.64;221228;1271;23628;-73
2023/01/15 02:32:38;;;;;;;2.50;1.40;;;;;;;5.14;84.67;97846.84;221426;1278;25506;-73
2023/01/15 02:37:45;;;;;;;2.00;1.60;;;;;;;5.23;84.71;97860.98;221470;1278;22637;-73
2023/01/15 02:42:49;;;;;;;4.00;1.60;;;;;;;5.31;84.44;97879.98;221213;1279;24251;-74
2023/01/15 02:47:57;;;;;;;2.60;1.30;;;;;;;5.40;84.32;97874.14;221602;1277;25256;-73
2023/01/15 02:53:07;;;;;;;2.40;1.50;;;;;;;5.51;83.87;97864.72;221613;1275;22548;-73
2023/01/15 02:58:13;;;;;;;;;;;;;;;5.61;83.65;97845.93;221262;1279;22526;-74
2023/01/15 03:03:26;;;;;;;2.20;1.30;;;;;;;5.70;83.52;97839.97;221399;1273;24289;-73
2023/01/15 03:08:28;;;;;;;2.00;1.30;;;;;;;5.84;82.36;97848.55;221678;1275;22546;-76
2023/01/15 03:13:55;;;;;;;1.50;0.90;;;;;;;6.02;82.09;97844.86;221324;1279;23701;-73
2023/01/15 03:19:30;;;;;;;1.60;1.10;;;;;;;6.18;81.70;97834.00;221502;1279;22553;-74
2023/01/15 03:25:04;;;;;;;2.10;1.40;;;;;;;6.32;81.68;97827.58;221243;1260;24120;-73
2023/01/15 03:30:23;;;;;;;1.50;0.90;;;;;;;6.44;81.04;97814.56;221105;1280;24292;-74
2023/01/15 03:35:45;;;;;;;2.00;1.20;;;;;;;6.52;80.65;97805.22;220936;1280;22909;-73
2023/01/15 03:40:57;;;;;;;2.30;1.10;;;;;;;6.64;80.88;97808.79;221257;1276;22662;-73
2023/01/15 03:46:05;;;;;;;1.20;0.90;;;;;;;6.70;80.83;97802.70;221304;1278;22537;-73
2023/01/15 03:51:43;;;;;;;1.90;1.00;;;;;;;6.76;81.53;97798.46;221084;1279;22544;-73
2023/01/15 03:56:58;;;;;;;2.30;0.90;;;;;;;6.81;81.32;97796.42;221228;1280;24177;-73
2023/01/15 04:02:08;;;;;;;1.00;0.80;;;;;;;6.82;82.02;97797.85;221258;1278;24286;-72
2023/01/15 04:07:11;;;;;;;1.40;0.80;;;;;;;6.81;82.69;97793.08;221145;1280;22659;-73
2023/01/15 04:12:15;;;;;;;1.30;0.80;;;;;;;6.81;83.58;97785.84;221227;1275;22540;-74
2023/01/15 04:17:21;;;;;;;2.00;1.10;;;;;;;6.80;83.50;97772.11;221213;1279;24279;-74
2023/01/15 04:22:25;;;;;;;1.90;1.00;;;;;;;6.81;83.64;97765.86;221437;1279;22533;-74
2023/01/15 04:27:28;;;;;;;2.20;1.40;;;;;;;6.85;83.74;97758.52;221461;1279;24206;-73
2023/01/15 04:32:31;;;;;;;1.60;0.80;;;;;;;6.86;84.05;97764.78;221408;1279;23916;-73
2023/01/15 04:37:34;;;;;;;2.20;1.10;;;;;;;6.83;84.10;97764.45;221333;1278;22545;-74
2023/01/15 04:48:00;;;;;;;1.10;0.90;;;;;;;6.75;84.48;97766.65;221419;1269;25291;-73
2023/01/15 04:53:03;;;;;;;2.20;1.40;;;;;;;6.65;84.31;97767.15;221324;1265;23314;-74
2023/01/15 04:58:06;;;;;;;1.70;1.20;;;;;;;6.51;84.27;97751.90;221307;1279;22546;-73
2023/01/15 05:03:09;;;;;;;2.30;1.30;;;;;;;6.43;84.40;97750.15;221336;1278;23948;-74
2023/01/15 05:08:11;;;;;;;2.90;1.70;;;;;;;6.35;84.49;97748.77;221340;1278;22618;-73
2023/01/15 05:13:15;;;;;;;3.90;1.60;;;;;;;6.27;84.72;97742.80;221428;1279;22939;-73
2023/01/15 05:18:17;;;;;;;4.40;1.80;;;;;;;6.19;84.93;97722.94;221361;1279;25261;-73
2023/01/15 05:23:20;;;;;;;3.10;1.70;;;;;;;6.08;84.85;97722.87;221093;1279;22537;-73
2023/01/15 05:28:25;;;;;;;2.60;1.60;;;;;;;5.95;84.43;97719.42;221695;1279;25508;-74
2023/01/15 05:33:27;;;;;;;2.40;1.10;;;;;;;5.85;84.62;97711.61;221606;1275;22572;-73
2023/01/15 05:38:32;;;;;;;1.70;1.30;;;;;;;5.79;85.14;97717.32;221458;1275;25256;-73
2023/01/15 05:43:35;;;;;;;3.70;1.60;;;;;;;5.75;85.02;97713.52;221411;1279;22533;-74
2023/01/15 05:48:37;;;;;;;3.50;1.40;;;;;;;5.71;85.27;97714.21;221357;1279;22538;-73
2023/01/15 05:53:39;;;;;;;3.00;1.30;;;;;;;5.66;85.36;97710.73;221290;1279;23758;-73
2023/01/15 05:58:42;;;;;;;3.10;1.50;;;;;;;5.62;85.03;97707.07;221434;1275;25465;-73
2023/01/15 06:03:47;;;;;;;4.70;1.90;;;;;;;5.60;85.29;97710.76;221583;1276;22586;-73
2023/01/15 06:08:49;;;;;;;2.70;1.80;;;;;;;5.63;84.91;97709.81;221419;1279;22530;-74
2023/01/15 06:13:51;;;;;;;2.30;1.50;;;;;;;5.68;84.72;97705.68;221540;1273;24287;-74
2023/01/15 06:18:54;;;;;;;4.00;1.90;;;;;;;5.71;84.62;97705.75;221584;1275;22621;-74
2023/01/15 06:23:56;;;;;;;3.60;1.30;;;;;;;5.71;84.55;97707.14;221526;1278;22547;-73
2023/01/15 06:28:58;;;;;;;3.60;1.90;;;;;;;5.69;84.44;97698.92;221360;1278;24170;-74
2023/01/15 06:34:00;;;;;;;1.90;1.50;;;;;;;5.69;84.14;97697.59;221588;1279;22497;-74
2023/01/15 06:39:02;;;;;;;3.30;1.90;;;;;;;5.67;84.04;97704.52;221464;1278;24228;-75
2023/01/15 06:49:39;;;;;;;3.30;1.90;;;;;;;5.69;84.57;97723.11;221382;1272;22555;-74
2023/01/15 06:54:42;;;;;;;4.40;2.10;;;;;;;5.71;84.20;97722.66;221367;1279;24228;-72
2023/01/15 06:59:45;;;;;;;2.60;1.70;;;;;;;5.74;83.93;97725.17;221224;1279;22507;-73
2023/01/15 07:04:47;;;;;;;3.90;2.10;;;;;;;5.76;83.82;97723.30;221332;1278;22481;-73
2023/01/15 07:09:52;;;;;;;3.10;2.00;;;;;;;5.78;83.53;97725.98;221500;1279;22790;-73
2023/01/15 07:14:55;;;;;;;4.00;2.40;;;;;;;5.80;83.43;97733.73;221392;1279;22555;-73
2023/01/15 07:19:57;;;;;;;3.90;2.20;;;;;;;5.82;83.62;97731.58;221343;1278;22635;-73
2023/01/15 07:25:00;;;;;;;3.40;2.10;;;;;;;5.82;83.53;97729.98;221455;1278;24102;-73
2023/01/15 07:30:04;;;;;;;4.10;2.40;;;;;;;5.82;83.43;97729.36;221574;1279;23177;-73
2023/01/15 07:35:09;;;;;;;4.20;2.50;;;;;;;5.82;82.79;97726.96;221398;1279;22537;-76
2023/01/15 07:40:12;;;;;;;5.60;3.00;;;;;;;5.82;82.68;97724.73;221654;1276;24507;-74
2023/01/15 07:50:38;;;;;;;5.90;2.70;;;;;;;5.81;82.61;97710.96;221435;1278;25383;-73
2023/01/15 07:55:43;;;;;;;7.00;2.30;;;;;;;5.81;82.48;97703.67;221243;1276;25434;-73
2023/01/15 08:00:45;;;;;;;5.20;2.20;;;;;;;5.82;82.62;97709.04;221521;1278;22582;-74
2023/01/15 08:05:49;;;;;;;3.90;2.00;;;;;;;5.85;82.52;97714.69;221430;1272;116194;-73
2023/01/15 08:16:12;;;;;;;3.70;2.30;;;;;;;5.94;81.91;97712.47;221583;1279;25355;-73
2023/01/15 08:21:15;;;;;;;5.10;2.20;;;;;;;5.95;81.81;97715.05;221562;1278;22561;-74
2023/01/15 08:26:18;;;;;;;3.40;2.10;;;;;;;5.98;81.34;97714.00;221631;1278;26366;-74
2023/01/15 08:31:21;;;;;;;5.90;2.30;;;;;;;5.98;80.79;97705.10;221555;1277;24281;-74
2023/01/15 08:36:25;;;;;;;4.30;1.80;;;;;;;6.00;80.11;97700.25;221577;1272;22495;-73
2023/01/15 08:41:28;;;;;;;5.50;2.40;;;;;;;6.01;80.48;97687.91;221290;1279;24231;-74
2023/01/15 08:46:31;;;;;;;3.00;1.60;;;;;;;6.01;79.86;97679.72;221256;1278;22810;-74
2023/01/15 08:51:33;;;;;;;4.60;2.10;;;;;;;6.01;79.92;97664.67;221263;1278;22988;-74
2023/01/15 08:56:35;;;;;;;6.30;2.60;;;;;;;6.02;79.97;97654.63;221572;1274;22619;-76
2023/01/15 09:01:39;;;;;;;6.10;2.90;;;;;;;6.03;79.54;97650.17;221594;1275;22548;-73
2023/01/15 09:06:45;;;;;;;6.70;3.40;;;;;;;6.05;79.92;97654.62;221499;1257;22574;-73
2023/01/15 09:11:48;;;;;;;3.50;2.30;;;;;;;6.09;79.61;97667.66;221522;1275;23769;-74
2023/01/15 09:16:50;;;;;;;4.50;2.40;;;;;;;6.15;79.37;97669.91;221622;1279;24221;-72
2023/01/15 09:21:52;;;;;;;4.80;2.20;;;;;;;6.23;78.98;97667.16;221526;1279;22571;-74
2023/01/15 09:26:55;;;;;;;4.60;2.10;;;;;;;6.31;79.08;97663.30;221653;1278;24387;-74
2023/01/15 09:31:57;;;;;;;4.40;2.20;;;;;;;6.37;78.58;97655.36;221614;1278;23679;-74
2023/01/15 09:37:00;;;;;;;3.50;1.80;;;;;;;6.44;78.17;97645.15;221332;1278;25246;-73
2023/01/15 09:42:18;;;;;;;4.00;1.80;;;;;;;6.52;78.64;97646.64;221441;1278;24231;-73
2023/01/15 09:47:25;;;;;;;5.80;1.90;;;;;;;6.58;78.36;97637.91;221607;1262;25485;-73
2023/01/15 09:53:04;;;;;;;3.60;1.50;;;;;;;6.64;77.99;97632.14;221584;1279;22543;-75
2023/01/15 09:58:10;;;;;;;3.40;1.40;;;;;;;6.63;78.51;97615.21;221445;1279;22544;-74
2023/01/15 10:03:36;;;;;;;3.40;1.40;;;;;;;6.58;79.08;97606.32;221568;1273;25100;-74
2023/01/15 10:08:47;;;;;;;4.00;2.00;;;;;;;6.51;79.62;97595.55;221575;1275;25271;-74
2023/01/15 10:14:08;;;;;;;2.80;1.30;;;;;;;6.47;80.00;97590.73;221566;1279;22552;-74
2023/01/15 10:19:14;;;;;;;6.40;2.50;;;;;;;6.40;80.17;97576.20;221659;1279;22526;-74
2023/01/15 10:24:36;;;;;;;3.40;1.90;;;;;;;6.30;80.76;97551.89;221425;1275;22697;-73
2023/01/15 10:30:04;;;;;;;4.40;1.70;;;;;;;6.27;81.16;97538.16;221546;1278;24118;-74
2023/01/15 10:35:41;;;;;;;5.70;2.70;;;;;;;6.22;81.87;97532.81;221411;1279;22571;-74
2023/01/15 10:41:00;;;;;;;5.60;2.30;;;;;;;6.19;82.21;97520.09;221588;1272;22577;-75
2023/01/15 10:46:11;;;;;;;6.20;2.60;;;;;;;6.18;82.77;97516.16;221609;1278;23949;-74
2023/01/15 10:51:19;;;;;;;4.10;2.20;;;;;;;6.23;83.25;97512.95;221550;1275;23219;-75
2023/01/15 10:56:42;;;;;;;6.80;2.50;;;;;;;6.25;83.76;97508.13;221458;1278;22525;-74
2023/01/15 11:01:45;;;;;;;6.70;3.00;;;;;;;6.21;84.19;97497.89;221345;1278;24231;-75
2023/01/15 11:06:48;;;;;;;7.30;4.00;;;;;;;6.21;84.56;97483.59;221592;1279;22568;-74
2023/01/15 11:22:27;;;;;;;9.80;4.20;;;;;;;6.33;85.15;97466.67;221335;1279;22591;-73
2023/01/15 11:27:37;;;;;;;7.00;3.60;;;;;;;6.41;85.51;97462.13;221488;1279;22816;-73
2023/01/15 11:32:39;;;;;;;25.00;12.80;;;;;;;6.48;85.64;97459.07;221482;1279;22538;-74
2023/01/15 11:37:50;;;;;;;10.80;5.00;;;;;;;6.56;85.66;97463.59;221494;1278;25367;-74
2023/01/15 11:53:54;;;;;;;8.70;3.80;;;;;;;6.46;85.17;97452.46;221562;1278;25373;-74
2023/01/15 11:59:01;;;;;;;9.60;4.20;;;;;;;6.48;84.78;97448.92;221505;1275;22664;-73
2023/01/15 12:04:30;;;;;;;10.10;3.90;;;;;;;6.56;85.00;97435.21;221207;1279;22595;-74
2023/01/15 12:10:13;;;;;;;8.20;3.80;;;;;;;6.66;85.00;97439.91;221436;1278;27368;-74
2023/01/15 12:15:30;;;;;;;7.40;3.50;;;;;;;6.75;85.12;97421.39;221548;1279;22729;-74
2023/01/15 12:21:25;;;;;;;7.90;3.80;;;;;;;6.82;84.85;97420.48;221597;1279;22552;-73
2023/01/15 12:27:15;;;;;;;8.20;4.10;;;;;;;6.88;84.49;97417.67;220819;1281;25410;-74
2023/01/15 12:32:30;;;;;;;7.00;3.70;;;;;;;6.93;84.56;97418.48;220923;1283;22624;-73
2023/01/15 12:37:53;;;;;;;11.10;4.40;;;;;;;6.94;84.39;97422.06;220768;1281;23254;-74
2023/01/15 12:49:00;;;;;;;8.30;3.90;;;;;;;6.99;84.07;97414.45;220964;1283;24291;-73
2023/01/15 12:54:14;;;;;;;11.50;4.20;;;;;;;6.99;83.88;97409.70;221131;1283;23133;-74
2023/01/15 12:59:20;;;;;;;8.80;4.30;;;;;;;7.00;84.24;97406.08;221536;1279;24285;-74
2023/01/15 13:04:48;;;;;;;10.10;4.80;;;;;;;6.97;83.90;97414.35;221583;1275;22537;-73
2023/01/15 13:10:44;;;;;;;12.30;5.30;;;;;;;6.97;83.53;97415.41;221426;1278;22548;-73
2023/01/15 13:16:13;;;;;;;12.70;5.50;;;;;;;6.99;84.01;97417.51;221111;1279;25246;-73
2023/01/15 13:21:19;;;;;;;10.80;5.50;;;;;;;6.97;84.19;97423.02;221550;1275;22575;-73
2023/01/15 13:26:46;;;;;;;13.30;6.70;;;;;;;6.90;84.70;97423.20;221410;1279;25358;-73
2023/01/15 13:32:08;;;;;;;13.30;5.80;;;;;;;6.85;85.29;97410.82;221392;1278;24348;-75
2023/01/15 13:37:19;;;;;;;11.60;5.60;;;;;;;6.77;85.22;97408.89;221608;1278;22540;-73
2023/01/15 13:42:30;;;;;;;10.70;5.20;;;;;;;6.70;85.55;97398.53;221568;1278;22540;-75
2023/01/15 13:47:37;;;;;;;12.60;6.00;;;;;;;6.65;85.72;97414.05;221314;1279;22647;-75
2023/01/15 13:52:39;;;;;;;9.80;5.80;;;;;;;6.63;86.01;97431.77;221539;1278;22550;-73
2023/01/15 13:57:42;;;;;;;10.80;5.50;;;;;;;6.63;86.39;97425.82;221453;1278;23806;-73
2023/01/15 14:02:52;;;;;;;7.70;4.50;;;;;;;6.65;86.50;97414.23;221633;1275;22586;-73
2023/01/15 14:07:57;;;;;;;10.20;5.30;;;;;;;6.63;86.55;97414.73;221246;1278;23828;-74
2023/01/15 14:13:17;;;;;;;11.60;5.70;;;;;;;6.55;86.61;97411.70;221638;1277;22539;-74
2023/01/15 14:18:45;;;;;;;12.20;6.30;;;;;;;6.43;86.79;97406.48;221469;1277;22537;-74
2023/01/15 14:23:58;;;;;;;12.60;5.50;;;;;;;6.36;87.26;97406.40;221651;1278;22594;-73
2023/01/15 14:29:49;;;;;;;10.20;4.90;;;;;;;6.32;87.50;97407.11;221429;1279;25533;-73
2023/01/15 14:34:57;;;;;;;10.60;5.00;;;;;;;6.30;87.99;97409.23;221327;1279;24265;-73
2023/01/15 14:40:02;;;;;;;10.40;5.10;;;;;;;6.27;87.94;97405.51;221491;1279;25471;-74
2023/01/15 14:45:19;;;;;;;11.70;5.80;;;;;;;6.25;88.06;97417.02;221323;1279;22673;-73
2023/01/15 14:50:22;;;;;;;15.90;6.70;;;;;;;6.27;88.09;97427.48;221350;1279;22679;-73
2023/01/15 14:55:25;;;;;;;10.20;5.10;;;;;;;6.26;88.54;97425.05;221352;1279;24409;-73
2023/01/15 15:00:41;;;;;;;8.80;4.30;;;;;;;6.20;88.67;97421.73;221187;1279;25413;-74
2023/01/15 15:05:46;;;;;;;11.10;4.90;;;;;;;6.07;89.29;97425.89;221376;1279;25281;-73
2023/01/15 15:10:53;;;;;;;8.60;4.60;;;;;;;5.98;89.29;97429.27;221569;1276;25772;-73
2023/01/15 15:16:10;;;;;;;9.80;4.60;;;;;;;5.87;89.85;97425.55;221349;1279;23282;-73
2023/01/15 15:21:20;;;;;;;6.70;3.90;;;;;;;5.77;90.29;97408.05;221677;1279;23448;-73
2023/01/15 15:26:31;;;;;;;10.00;5.30;;;;;;;5.70;90.29;97422.40;221446;1279;26432;-73
2023/01/15 15:31:48;;;;;;;10.70;4.70;;;;;;;5.68;90.67;97420.52;221514;1279;22600;-72
2023/01/15 15:36:51;;;;;;;8.50;4.40;;;;;;;5.68;90.86;97442.00;221627;1279;22789;-73
2023/01/15 15:52:43;;;;;;;5.60;3.70;;;;;;;5.59;91.55;97430.17;221654;1276;22610;-73
2023/01/15 15:57:52;;;;;;;7.10;3.70;;;;;;;5.57;91.12;97455.39;221420;1279;23081;-72
2023/01/15 16:02:54;;;;;;;7.90;4.10;;;;;;;5.57;91.55;97482.42;221442;1279;24387;-74
2023/01/15 16:08:30;;;;;;;5.60;3.30;;;;;;;5.58;91.24;97495.80;221438;1278;22559;-74
2023/01/15 16:13:46;;;;;;;6.20;3.00;;;;;;;5.56;91.42;97517.29;221396;1279;24382;-74
2023/01/15 16:18:51;;;;;;;6.00;3.30;;;;;;;5.51;91.84;97542.27;221473;1279;22545;-72
2023/01/15 16:24:02;;;;;;;6.30;3.60;;;;;;;5.45;92.09;97560.62;221478;1278;22690;-72
2023/01/15 16:29:14;;;;;;;8.90;4.00;;;;;;;5.38;92.42;97582.48;221762;1257;23018;-72
2023/01/15 16:34:33;;;;;;;6.80;3.80;;;;;;;5.31;92.52;97606.52;221454;1279;22555;-73
2023/01/15 16:39:43;;;;;;;7.20;4.70;;;;;;;5.21;92.96;97625.21;221533;1276;22535;-72
2023/01/15 16:44:55;;;;;;;8.80;3.80;;;;;;;5.12;93.67;97650.77;221494;1279;22544;-73
2023/01/15 16:50:22;;;;;;;5.40;3.40;;;;;;;5.01;95.19;97656.34;221416;1279;24368;-74
2023/01/15 16:55:36;;;;;;;7.00;3.80;;;;;;;4.91;96.35;97671.89;221487;1276;22673;-73
2023/01/15 17:00:45;;;;;;;7.00;3.50;;;;;;;4.81;96.38;97682.14;221456;1279;23758;-74
2023/01/15 17:05:51;;;;;;;5.60;3.50;;;;;;;4.71;97.23;97692.41;221438;1279;24237;-75
2023/01/15 17:10:57;;;;;;;4.90;3.30;;;;;;;4.61;98.57;97698.30;221487;1279;22507;-74
2023/01/15 17:16:26;;;;;;;6.20;3.50;;;;;;;4.51;99.27;97699.48;221407;1279;22657;-74
2023/01/15 17:21:30;;;;;;;8.50;4.70;;;;;;;4.44;98.74;97711.93;221435;1264;24408;-74
2023/01/15 17:26:40;;;;;;;7.70;3.40;;;;;;;4.38;99.11;97708.04;221345;1279;25316;-75
2023/01/15 17:31:45;;;;;;;6.70;4.00;;;;;;;4.31;99.56;97714.23;221630;1277;22955;-75
2023/01/15 17:36:49;;;;;;;5.50;3.50;;;;;;;4.26;99.29;97717.59;221582;1279;22540;-74
2023/01/15 17:41:55;;;;;;;4.90;3.30;;;;;;;4.22;99.84;97726.30;221311;1279;23062;-75
2023/01/15 17:47:15;;;;;;;5.40;2.60;;;;;;;4.19;99.88;97728.19;221535;1267;24111;-76
2023/01/15 17:52:21;;;;;;;5.10;2.80;;;;;;;4.13;100.00;97733.30;222193;1279;22658;-75
2023/01/15 18:08:17;;;;;;;4.30;2.40;;;;;;;3.98;100.00;97758.46;221463;1279;25870;-75
2023/01/15 18:13:19;;;;;;;4.10;1.80;;;;;;;3.91;100.00;97770.89;221355;1264;22683;-75
2023/01/15 18:18:22;;;;;;;3.40;2.00;;;;;;;3.84;100.00;97775.88;221320;1279;22726;-76
2023/01/15 18:23:25;;;;;;;4.40;2.10;;;;;;;3.80;100.00;97775.27;221449;1276;24231;-75
2023/01/15 18:28:34;;;;;;;3.10;2.10;;;;;;;3.76;100.00;97776.54;221808;1276;22533;-75
2023/01/15 18:33:36;;;;;;;4.00;2.50;;;;;;;3.72;100.00;97773.74;222412;1279;22904;-77
2023/01/15 18:38:54;;;;;;;;;;;;;;;;;;;;;
2023/01/15 18:49:19;;;;;;;4.90;2.40;;;;;;;3.61;100.00;97763.89;221486;1263;23277;-76
2023/01/15 18:54:21;;;;;;;5.60;2.50;;;;;;;3.57;100.00;97765.66;221392;1274;24266;-75
2023/01/15 18:59:23;;;;;;;6.50;2.70;;;;;;;3.53;100.00;97762.22;221619;1276;22578;-75
2023/01/15 19:04:26;;;;;;;5.80;2.60;;;;;;;3.51;100.00;97764.71;221231;1279;22696;-75
2023/01/15 19:09:29;;;;;;;5.90;2.90;;;;;;;3.49;100.00;97761.80;221209;1279;22535;-76
2023/01/15 19:20:01;;;;;;;6.80;2.30;;;;;;;3.48;100.00;97763.61;221452;1264;23794;-76
2023/01/15 19:25:05;;;;;;;5.40;2.10;;;;;;;3.46;100.00;97770.39;221523;1277;22641;-76
2023/01/15 19:30:08;;;;;;;6.10;2.90;;;;;;;3.43;100.00;97773.18;221493;1279;23093;-75
2023/01/15 19:35:10;;;;;;;6.10;2.50;;;;;;;3.39;100.00;97779.81;221517;1279;22549;-75
2023/01/15 19:40:22;;;;;;;5.10;2.50;;;;;;;3.37;100.00;97774.26;221293;1279;24179;-75
2023/01/15 19:50:47;;;;;;;9.10;4.00;;;;;;;3.30;100.00;97791.83;221360;1276;22541;-75
2023/01/15 19:55:50;;;;;;;8.10;3.80;;;;;;;3.27;100.00;97789.34;221287;1275;22724;-76
2023/01/15 20:00:52;;;;;;;7.40;3.70;;;;;;;3.23;100.00;97786.16;221674;1276;22842;-75
2023/01/15 20:05:54;;;;;;;7.50;3.50;;;;;;;3.19;100.00;97789.55;221265;1273;133950;-75
2023/01/15 20:10:57;;;;;;;7.20;3.70;;;;;;;3.18;100.00;97781.29;221447;1279;22567;-75
2023/01/15 20:16:10;;;;;;;6.70;3.80;;;;;;;3.17;100.00;97782.93;221505;1279;24234;-76
2023/01/15 20:21:15;;;;;;;6.90;3.90;;;;;;;3.16;100.00;97787.22;221472;1275;24263;-75
2023/01/15 20:26:17;;;;;;;8.40;4.30;;;;;;;3.16;100.00;97777.80;221570;1277;22543;-75
2023/01/15 20:31:20;;;;;;;9.30;3.90;;;;;;;3.16;100.00;97780.45;221472;1276;22561;-75
2023/01/15 20:36:23;;;;;;;7.70;4.10;;;;;;;3.16;100.00;97784.27;221714;1278;22672;-75
2023/01/15 20:46:47;;;;;;;8.50;4.00;;;;;;;3.15;100.00;97786.42;221387;1275;22593;-74
2023/01/15 20:51:50;;;;;;;9.40;4.70;;;;;;;3.13;100.00;97785.27;221450;1278;25008;-75
2023/01/15 20:56:52;;;;;;;9.70;4.90;;;;;;;3.12;100.00;97784.77;221278;1279;22592;-75
2023/01/15 21:01:55;;;;;;;6.70;4.40;;;;;;;3.12;100.00;97780.23;221535;1275;25439;-75
2023/01/15 21:06:57;;;;;;;8.60;4.50;;;;;;;3.13;100.00;97778.06;221312;1279;22553;-74
2023/01/15 21:11:59;;;;;;;7.40;4.30;;;;;;;3.15;100.00;97768.27;221568;1275;22676;-74
2023/01/15 21:17:01;;;;;;;8.90;4.90;;;;;;;3.16;100.00;97762.23;221634;1279;22551;-75
2023/01/15 21:22:03;;;;;;;8.00;4.80;;;;;;;3.17;100.00;97768.00;221397;1278;24314;-74
2023/01/15 21:27:09;;;;;;;7.00;4.60;;;;;;;3.20;100.00;97769.21;221521;1278;22525;-74
2023/01/15 21:32:11;;;;;;;8.50;4.10;;;;;;;3.20;100.00;97781.02;221591;1273;25336;-77
2023/01/15 21:37:15;;;;;;;9.70;4.20;;;;;;;3.21;100.00;97783.41;221298;1279;25310;-75
2023/01/15 21:47:40;;;;;;;9.10;4.90;;;;;;;3.20;100.00;97770.97;221475;1278;24364;-75
2023/01/15 21:52:47;;;;;;;9.00;4.50;;;;;;;3.20;100.00;97773.56;221270;1275;24403;-76
2023/01/15 21:57:50;;;;;;;8.60;4.90;;;;;;;3.19;100.00;97763.23;221578;1279;24804;-74
2023/01/15 22:02:54;;;;;;;11.60;5.40;;;;;;;3.18;100.00;97767.00;221319;1279;24246;-75
2023/01/15 22:07:56;;;;;;;10.20;5.70;;;;;;;3.17;100.00;97774.47;221358;1278;22669;-75
2023/01/15 22:13:06;;;;;;;9.60;5.80;;;;;;;3.15;100.00;97768.74;221283;1279;22548;-75
2023/01/15 22:18:09;;;;;;;10.60;6.20;;;;;;;3.15;100.00;97770.71;221550;1274;25304;-75
2023/01/15 22:23:11;;;;;;;10.00;6.20;;;;;;;3.14;100.00;97783.98;221573;1273;22575;-75
2023/01/15 22:28:12;;;;;;;13.50;6.40;;;;;;;3.11;100.00;97782.09;221430;1278;25300;-75
2023/01/15 22:33:16;;;;;;;10.20;5.50;;;;;;;3.10;100.00;97779.98;221470;1279;22552;-74
2023/01/15 22:38:18;;;;;;;10.50;5.50;;;;;;;3.08;100.00;97779.06;221505;1279;24110;-75
2023/01/15 22:43:21;;;;;;;9.20;4.80;;;;;;;3.06;100.00;97766.27;221387;1278;22533;-74
2023/01/15 22:48:24;;;;;;;14.10;6.60;;;;;;;3.04;100.00;97753.55;221532;1273;22627;-75
2023/01/15 22:53:26;;;;;;;9.90;6.10;;;;;;;3.03;100.00;97753.64;221617;1276;22661;-73
2023/01/15 22:58:28;;;;;;;10.40;6.10;;;;;;;3.03;100.00;97754.92;221617;1275;24245;-74
2023/01/15 23:03:35;;;;;;;10.50;5.70;;;;;;;3.01;100.00;97750.16;221476;1276;24489;-76
2023/01/15 23:08:38;;;;;;;12.40;7.20;;;;;;;2.98;100.00;97754.94;221470;1269;22531;-74
2023/01/15 23:13:41;;;;;;;12.20;5.90;;;;;;;2.94;100.00;97750.10;221501;1275;24257;-74
2023/01/15 23:18:44;;;;;;;13.30;6.40;;;;;;;2.89;100.00;97746.40;221313;1279;25318;-74
2023/01/15 23:23:46;;;;;;;12.80;6.40;;;;;;;2.82;100.00;97746.17;221425;1279;22562;-75
2023/01/15 23:28:49;;;;;;;12.10;6.60;;;;;;;2.73;100.00;97747.81;221334;1279;22540;-75
2023/01/15 23:33:52;;;;;;;14.30;7.20;;;;;;;2.64;100.00;97743.02;221359;1277;25379;-74
2023/01/15 23:38:54;;;;;;;16.10;8.10;;;;;;;2.52;100.00;97737.23;221571;1279;24235;-75
2023/01/15 23:49:18;;;;;;;21.40;10.00;;;;;;;2.34;100.00;97739.98;221377;1278;22552;-74
2023/01/15 23:54:30;;;;;;;20.20;11.40;;;;;;;2.24;100.00;97739.75;221415;1279;24302;-74
2023/01/15 23:59:33;;;;;;;21.70;10.00;;;;;;;2.14;100.00;97732.99;221505;1277;25300;-75
